Time;durP1;ratioP1;P1;durP2;ratioP2;P2;SDS_P1;SDS_P2;PMS_P1;PMS_P2;Temp;Humidity;BMP_temperature;BMP_pressure;BME280_temperature;BME280_humidity;BME280_pressure;Samples;Min_cycle;Max_cycle;Signal;HPM_P1;HPM_P2
2021/12/19 00:04:22;;;;;;;16.27;6.30;;;;;;;7.67;60.79;98892.44;4471251;32;20136;-80
2021/12/19 00:09:35;;;;;;;16.12;6.10;;;;;;;7.86;60.32;98886.94;4471346;32;20168;-80
2021/12/19 00:12:04;;;;;;;17.23;6.43;;;;;;;7.52;61.91;98857.59;4470577;32;20096;-80
2021/12/19 00:14:31;;;;;;;17.02;7.18;;;;;;;7.65;60.89;98858.22;4471572;32;20101;-80
2021/12/19 00:16:58;;;;;;;16.83;6.55;;;;;;;7.68;61.86;98855.59;4469922;32;20164;-80
2021/12/19 00:19:25;;;;;;;17.33;6.82;;;;;;;7.66;61.95;98856.50;4471392;32;20132;-80
2021/12/19 00:21:52;;;;;;;16.95;5.90;;;;;;;7.61;62.63;98851.44;4471711;32;20098;-80
2021/12/19 00:24:19;;;;;;;15.15;6.43;;;;;;;7.53;62.78;98850.72;4471204;32;20569;-80
2021/12/19 00:26:46;;;;;;;17.80;6.72;;;;;;;7.82;61.71;98848.47;4471480;32;20202;-80
2021/12/19 00:29:14;;;;;;;15.50;5.70;;;;;;;8.08;61.03;98855.69;4471349;32;20157;-80
2021/12/19 00:31:41;;;;;;;15.38;6.57;;;;;;;7.65;62.42;98853.06;4470274;32;20179;-80
2021/12/19 00:34:08;;;;;;;14.35;5.95;;;;;;;8.79;59.17;98859.38;4471166;32;20093;-80
2021/12/19 00:36:35;;;;;;;15.48;6.05;;;;;;;8.20;60.77;98864.87;4471407;32;20454;-80
2021/12/19 00:39:03;;;;;;;15.10;6.18;;;;;;;8.47;59.74;98868.62;4470790;32;20132;-80
2021/12/19 00:41:30;;;;;;;15.45;6.57;;;;;;;9.28;57.30;98857.34;4471448;32;20119;-80
2021/12/19 00:44:07;;;;;;;16.20;6.20;;;;;;;9.15;57.41;98863.69;4471364;32;20085;-80
2021/12/19 00:46:43;;;;;;;15.73;6.22;;;;;;;8.75;57.95;98856.03;4470904;32;20496;-80
2021/12/19 00:49:11;;;;;;;16.00;6.60;;;;;;;8.68;58.44;98862.19;4471052;32;22292;-80
2021/12/19 00:51:38;;;;;;;16.20;6.65;;;;;;;8.16;60.64;98855.53;4471322;32;20833;-80
2021/12/19 00:54:09;;;;;;;15.55;6.30;;;;;;;8.99;57.93;98847.72;4469788;32;20152;-80
2021/12/19 00:56:45;;;;;;;14.90;6.07;;;;;;;9.09;57.41;98839.78;4471131;32;20164;-80
2021/12/19 00:59:12;;;;;;;14.80;5.82;;;;;;;9.48;55.97;98840.53;4469343;32;20101;-80
2021/12/19 01:01:44;;;;;;;17.50;5.95;;;;;;;8.71;58.71;98838.94;4471069;32;20450;-80
2021/12/19 01:04:14;;;;;;;17.23;6.72;;;;;;;8.96;57.72;98837.53;4471071;32;20085;-80
2021/12/19 01:06:42;;;;;;;15.60;6.62;;;;;;;9.03;57.18;98833.06;4469525;32;20470;-80
2021/12/19 01:09:10;;;;;;;15.73;5.95;;;;;;;9.08;57.26;98838.94;4470696;32;20114;-80
2021/12/19 01:11:37;;;;;;;16.90;6.28;;;;;;;7.87;61.59;98827.84;4469751;32;20089;-80
2021/12/19 01:14:05;;;;;;;17.33;6.93;;;;;;;8.00;61.55;98816.44;4470533;32;20107;-80
2021/12/19 01:16:32;;;;;;;18.30;7.10;;;;;;;8.25;60.73;98823.66;4470712;32;20708;-80
2021/12/19 01:18:59;;;;;;;18.08;6.85;;;;;;;8.98;57.98;98819.47;4470526;32;20118;-80
2021/12/19 01:21:26;;;;;;;15.85;6.60;;;;;;;9.05;57.31;98821.00;4470715;32;20085;-80
2021/12/19 01:23:53;;;;;;;14.43;5.62;;;;;;;9.51;56.18;98810.38;4470722;32;20151;-80
2021/12/19 01:26:21;;;;;;;13.10;5.82;;;;;;;8.18;61.83;98799.78;4470686;32;20113;-80
2021/12/19 01:28:48;;;;;;;16.00;5.75;;;;;;;7.46;65.17;98801.22;4470275;32;20133;-80
2021/12/19 01:31:15;;;;;;;14.45;5.53;;;;;;;8.22;63.02;98811.72;4470552;32;20093;-80
2021/12/19 01:33:42;;;;;;;19.40;5.82;;;;;;;7.80;64.91;98798.84;4470549;32;20160;-80
2021/12/19 01:36:09;;;;;;;13.77;5.50;;;;;;;7.40;67.03;98793.62;4470657;32;20108;-80
2021/12/19 01:38:36;;;;;;;14.48;5.87;;;;;;;8.07;65.41;98783.75;4470416;32;20101;-80
2021/12/19 01:41:03;;;;;;;14.95;5.68;;;;;;;8.21;64.57;98770.62;4470608;32;20089;-80
2021/12/19 01:43:31;;;;;;;13.55;5.43;;;;;;;8.25;64.69;98777.38;4472202;32;20783;-79
2021/12/19 01:45:59;;;;;;;11.90;4.40;;;;;;;8.68;62.98;98782.44;4472272;32;20219;-79
2021/12/19 01:48:26;;;;;;;13.90;5.12;;;;;;;8.10;65.89;98776.00;4471075;32;20097;-80
2021/12/19 01:50:54;;;;;;;13.65;5.40;;;;;;;8.18;66.46;98768.09;4472622;32;20145;-80
2021/12/19 01:53:21;;;;;;;13.52;5.30;;;;;;;8.24;66.04;98768.81;4472557;32;20484;-80
2021/12/19 01:55:49;;;;;;;13.02;5.40;;;;;;;8.05;67.86;98754.66;4472154;32;20340;-80
2021/12/19 01:58:19;;;;;;;12.73;4.75;;;;;;;7.57;70.12;98756.53;4472367;32;20164;-80
2021/12/19 02:00:52;;;;;;;15.82;5.80;;;;;;;7.61;69.40;98756.41;4472435;32;20181;-80
2021/12/19 02:03:20;;;;;;;14.75;5.55;;;;;;;7.61;69.88;98763.28;4472218;32;20329;-80
2021/12/19 02:05:48;;;;;;;13.15;5.18;;;;;;;8.23;67.26;98743.16;4472471;32;20092;-80
2021/12/19 02:08:16;;;;;;;14.73;5.95;;;;;;;8.56;66.01;98744.97;4472450;32;20153;-80
2021/12/19 02:10:43;;;;;;;13.25;5.65;;;;;;;8.80;65.12;98746.09;4472054;32;20563;-80
2021/12/19 02:13:12;;;;;;;14.07;6.03;;;;;;;8.37;65.89;98728.28;4471181;32;20144;-80
2021/12/19 02:15:41;;;;;;;13.55;5.25;;;;;;;7.99;67.28;98731.69;4472060;32;20093;-80
2021/12/19 02:18:14;;;;;;;13.43;5.20;;;;;;;7.73;68.25;98711.66;4472004;32;20480;-80
2021/12/19 02:20:50;;;;;;;13.38;5.25;;;;;;;8.42;66.37;98713.59;4470979;32;20148;-80
2021/12/19 02:23:18;;;;;;;14.45;5.95;;;;;;;8.72;64.89;98719.75;4472095;32;20077;-80
2021/12/19 02:25:46;;;;;;;14.40;5.75;;;;;;;8.79;64.16;98712.69;4472268;32;20092;-80
2021/12/19 02:28:13;;;;;;;15.32;6.05;;;;;;;8.57;64.79;98720.94;4472183;32;20165;-80
2021/12/19 02:30:40;;;;;;;14.95;5.90;;;;;;;8.29;64.91;98719.84;4471897;32;20106;-80
2021/12/19 02:33:11;;;;;;;14.87;6.20;;;;;;;8.19;65.87;98711.53;4472308;32;20089;-80
2021/12/19 02:35:40;;;;;;;16.05;5.45;;;;;;;8.32;65.22;98712.94;4472298;32;20124;-80
2021/12/19 02:38:31;;;;;;;12.85;6.00;;;;;;;8.29;65.56;98712.13;4471810;32;20119;-80
2021/12/19 02:49:23;;;;;;;9.77;4.10;;;;;;;7.90;66.90;98677.91;4472003;32;20116;-80
2021/12/19 02:51:52;;;;;;;13.18;5.35;;;;;;;7.05;69.80;98650.53;4470840;32;20163;-80
2021/12/19 02:54:21;;;;;;;13.93;5.43;;;;;;;6.84;71.28;98674.03;4472092;32;20148;-80
2021/12/19 02:56:48;;;;;;;13.05;4.57;;;;;;;7.30;68.58;98662.91;4471594;32;20123;-80
2021/12/19 02:59:15;;;;;;;13.18;5.20;;;;;;;7.53;67.46;98655.56;4471512;32;20187;-80
2021/12/19 03:01:44;;;;;;;14.52;5.40;;;;;;;7.17;68.11;98658.00;4472236;32;20163;-80
2021/12/19 03:04:12;;;;;;;12.45;4.40;;;;;;;7.05;68.81;98662.53;4472220;32;20140;-80
2021/12/19 03:06:47;;;;;;;15.35;5.60;;;;;;;7.02;69.52;98644.59;4471711;32;20089;-80
2021/12/19 03:09:26;;;;;;;13.65;5.57;;;;;;;6.56;70.74;98633.47;4472067;32;20594;-80
2021/12/19 03:19:59;;;;;;;13.77;4.78;;;;;;;6.62;70.29;98627.41;4471599;32;20096;-80
2021/12/19 03:22:26;;;;;;;14.07;5.12;;;;;;;6.45;70.45;98609.75;4472153;32;20137;-80
2021/12/19 03:24:53;;;;;;;14.15;5.32;;;;;;;6.20;71.30;98608.47;4470840;32;20077;-80
2021/12/19 03:27:20;;;;;;;14.95;5.68;;;;;;;6.49;70.62;98596.00;4471712;32;20111;-80
2021/12/19 03:29:47;;;;;;;;;;;;;;;6.62;69.65;98597.47;4472096;32;20704;-80
2021/12/19 03:32:14;;;;;;;12.27;4.45;;;;;;;7.04;67.61;98589.84;4472192;32;20043;-80
2021/12/19 03:34:41;;;;;;;15.85;5.68;;;;;;;6.90;67.67;98579.00;4471671;32;20080;-80
2021/12/19 03:37:08;;;;;;;15.45;5.68;;;;;;;6.00;71.40;98570.34;4471956;32;20151;-80
2021/12/19 03:39:55;;;;;;;13.57;4.78;;;;;;;6.34;70.25;98570.63;4471589;32;20100;-80
2021/12/19 03:42:24;;;;;;;12.60;4.70;;;;;;;5.90;71.80;98582.47;4471755;32;20093;-80
2021/12/19 03:44:52;;;;;;;15.43;6.03;;;;;;;5.58;72.95;98566.69;4471835;32;20518;-80
2021/12/19 03:47:19;;;;;;;15.93;6.05;;;;;;;6.12;71.10;98552.22;4471663;32;20101;-80
2021/12/19 03:49:46;;;;;;;14.27;6.10;;;;;;;6.55;69.20;98561.72;4471665;32;20111;-80
2021/12/19 03:52:13;;;;;;;13.52;5.40;;;;;;;5.90;71.81;98550.84;4471860;32;20076;-80
2021/12/19 03:54:41;;;;;;;11.57;4.70;;;;;;;5.81;72.26;98549.28;4470200;32;20156;-80
2021/12/19 03:57:08;;;;;;;13.18;4.35;;;;;;;5.73;72.29;98544.25;4471831;32;20103;-80
2021/12/19 03:59:35;;;;;;;13.10;5.05;;;;;;;5.91;71.77;98548.28;4471432;32;20184;-80
2021/12/19 04:02:03;;;;;;;13.65;5.57;;;;;;;5.50;73.70;98521.56;4470264;32;20148;-80
2021/12/19 04:04:36;;;;;;;14.25;5.87;;;;;;;5.33;74.63;98538.91;4470483;32;20132;-80
2021/12/19 04:07:04;;;;;;;13.05;5.50;;;;;;;5.26;75.63;98521.94;4471493;32;20110;-80
2021/12/19 04:09:31;;;;;;;13.93;5.43;;;;;;;5.74;73.03;98522.94;4471127;32;20104;-80
2021/12/19 04:11:58;;;;;;;14.82;5.25;;;;;;;5.55;74.19;98513.00;4470556;32;20154;-80
2021/12/19 04:14:25;;;;;;;11.40;4.70;;;;;;;5.54;74.43;98514.72;4471636;32;20140;-80
2021/12/19 04:16:51;;;;;;;;;;;;;;;5.12;76.75;98511.06;4471388;32;20444;-79
2021/12/19 04:19:20;;;;;;;11.93;4.28;;;;;;;4.67;79.73;98508.19;4471376;32;20370;-79
2021/12/19 04:21:48;;;;;;;10.57;4.00;;;;;;;4.93;78.52;98490.84;4471632;32;20163;-79
2021/12/19 04:24:15;;;;;;;10.55;3.87;;;;;;;4.87;79.69;98492.63;4470997;32;20139;-80
2021/12/19 04:26:42;;;;;;;10.48;3.95;;;;;;;4.88;80.68;98501.97;4471548;32;20150;-80
2021/12/19 04:29:09;;;;;;;9.52;3.75;;;;;;;5.09;79.92;98486.34;4471264;32;20115;-80
2021/12/19 04:31:37;;;;;;;13.60;4.62;;;;;;;4.71;81.75;98486.88;4471360;32;20096;-80
2021/12/19 04:34:04;;;;;;;10.10;3.70;;;;;;;5.02;80.49;98489.03;4471298;32;20081;-80
2021/12/19 04:36:36;;;;;;;14.02;4.68;;;;;;;4.73;80.99;98471.50;4470983;32;20105;-80
2021/12/19 04:58:02;;;;;;;13.20;4.32;;;;;;;5.04;80.53;98502.62;4470715;32;20096;-80
2021/12/19 05:00:47;;;;;;;12.82;4.60;;;;;;;4.59;82.20;98503.19;4470848;32;20447;-80
2021/12/19 05:16:43;;;;;;;10.52;4.25;;;;;;;5.11;80.48;98476.13;4470713;32;20098;-80
2021/12/19 05:19:31;;;;;;;11.82;4.28;;;;;;;4.58;82.42;98481.06;4471357;32;20832;-80
2021/12/19 05:22:02;;;;;;;;;;;;;;;4.58;81.93;98465.72;4473266;32;20141;-80
2021/12/19 05:27:05;;;;;;;11.43;3.92;;;;;;;4.94;80.73;98473.78;4472839;32;20088;-80
2021/12/19 05:29:34;;;;;;;11.93;3.45;;;;;;;4.62;81.83;98482.69;4472468;32;20164;-80
2021/12/19 05:32:03;;;;;;;8.68;3.10;;;;;;;4.90;80.86;98492.59;4474268;32;20442;-79
2021/12/19 05:34:30;;;;;;;10.20;3.30;;;;;;;4.65;81.89;98472.44;4473171;32;20455;-80
2021/12/19 05:45:17;;;;;;;7.57;2.83;;;;;;;4.85;80.20;98461.97;4472753;32;20140;-80
2021/12/19 05:47:46;;;;;;;8.85;2.67;;;;;;;4.48;82.89;98438.59;4472092;32;20097;-80
2021/12/19 05:50:16;;;;;;;9.65;3.10;;;;;;;4.59;81.89;98423.97;4472468;32;20092;-80
2021/12/19 05:52:43;;;;;;;11.48;3.72;;;;;;;4.67;81.60;98436.63;4472545;32;20136;-80
2021/12/19 05:55:10;;;;;;;9.18;3.47;;;;;;;4.61;81.18;98437.56;4472183;32;20392;-80
2021/12/19 05:57:37;;;;;;;8.18;2.75;;;;;;;5.03;79.48;98429.34;4472593;32;20136;-80
2021/12/19 06:00:07;;;;;;;9.32;2.60;;;;;;;4.83;80.59;98434.72;4471288;32;20093;-80
2021/12/19 06:02:34;;;;;;;7.18;2.67;;;;;;;5.35;78.14;98403.25;4472133;32;20085;-80
2021/12/19 06:05:02;;;;;;;11.40;3.55;;;;;;;5.21;78.56;98413.72;4472521;32;20159;-80
2021/12/19 06:07:29;;;;;;;6.95;2.40;;;;;;;5.21;78.13;98409.44;4472144;32;20072;-80
2021/12/19 06:09:56;;;;;;;7.70;2.62;;;;;;;5.48;77.08;98402.19;4472202;32;20456;-80
2021/12/19 06:12:23;;;;;;;7.95;2.60;;;;;;;5.35;77.57;98396.44;4472539;32;20116;-80
2021/12/19 06:14:51;;;;;;;7.50;2.53;;;;;;;5.34;77.48;98376.84;4471982;32;20084;-80
2021/12/19 06:17:17;;;;;;;6.07;2.20;;;;;;;4.91;78.94;98374.94;4471337;32;20102;-80
2021/12/19 06:19:44;;;;;;;7.15;2.37;;;;;;;4.94;79.00;98372.34;4472220;32;20157;-80
2021/12/19 06:22:11;;;;;;;;;;;;;;;4.79;80.00;98370.03;4472530;32;20088;-80
2021/12/19 06:24:38;;;;;;;7.93;2.47;;;;;;;4.63;80.27;98348.94;4472427;32;19976;-80
2021/12/19 06:27:05;;;;;;;6.82;2.22;;;;;;;4.90;78.51;98329.81;4472405;32;20136;-80
2021/12/19 06:29:33;;;;;;;7.40;2.37;;;;;;;4.92;79.50;98340.84;4471166;32;20168;-80
2021/12/19 06:32:00;;;;;;;8.30;2.60;;;;;;;4.76;80.05;98293.34;4472125;32;20535;-80
2021/12/19 06:34:27;;;;;;;6.78;2.53;;;;;;;4.94;79.57;98333.16;4472397;32;20475;-80
2021/12/19 06:36:54;;;;;;;7.57;2.60;;;;;;;4.74;80.54;98330.88;4471908;32;20088;-80
2021/12/19 06:39:23;;;;;;;6.45;2.30;;;;;;;4.38;82.56;98342.47;4470931;32;20120;-80
2021/12/19 06:41:50;;;;;;;7.40;2.70;;;;;;;4.46;81.89;98368.75;4471230;32;20167;-80
2021/12/19 06:44:17;;;;;;;8.73;2.67;;;;;;;4.81;80.89;98341.88;4471800;32;20514;-79
2021/12/19 06:46:44;;;;;;;7.75;2.67;;;;;;;4.41;82.80;98345.00;4472249;32;20129;-79
2021/12/19 06:49:11;;;;;;;8.07;3.05;;;;;;;4.55;82.29;98352.44;4472049;32;20459;-80
2021/12/19 06:51:38;;;;;;;7.37;2.58;;;;;;;4.75;80.70;98317.22;4471952;32;20388;-80
2021/12/19 06:54:05;;;;;;;6.37;2.28;;;;;;;4.64;82.18;98347.22;4472176;32;20140;-80
2021/12/19 06:56:32;;;;;;;10.10;3.05;;;;;;;4.86;80.94;98355.41;4472199;32;20096;-80
2021/12/19 06:58:59;;;;;;;6.20;2.17;;;;;;;5.04;80.45;98351.75;4471901;32;20092;-80
2021/12/19 07:01:25;;;;;;;;;;;;;;;5.19;79.53;98343.81;4472330;32;20552;-80
2021/12/19 07:03:52;;;;;;;6.95;2.42;;;;;;;5.20;79.64;98336.09;4471889;32;20039;-80
2021/12/19 07:06:20;;;;;;;7.10;2.70;;;;;;;5.40;79.09;98334.94;4472220;32;20081;-80
2021/12/19 07:08:47;;;;;;;8.60;3.25;;;;;;;5.50;78.83;98334.75;4471939;32;20104;-80
2021/12/19 07:11:14;;;;;;;7.45;2.22;;;;;;;5.56;78.07;98345.75;4471634;32;20092;-80
2021/12/19 07:13:41;;;;;;;8.43;3.15;;;;;;;5.84;77.07;98354.59;4472123;32;20452;-80
2021/12/19 07:16:08;;;;;;;6.07;2.50;;;;;;;6.06;76.03;98348.25;4471812;32;20088;-80
2021/12/19 07:18:36;;;;;;;5.57;2.10;;;;;;;5.97;76.42;98350.97;4471784;32;20152;-80
2021/12/19 07:21:07;;;;;;;8.35;3.10;;;;;;;6.42;74.18;98343.22;4471995;32;20088;-80
2021/12/19 07:23:34;;;;;;;6.85;2.15;;;;;;;6.28;74.95;98342.69;4472282;32;20097;-80
2021/12/19 07:26:02;;;;;;;9.30;2.78;;;;;;;6.43;74.78;98341.50;4471726;32;20101;-80
2021/12/19 07:28:29;;;;;;;8.93;3.15;;;;;;;6.41;74.64;98353.53;4472007;32;20097;-80
2021/12/19 07:30:56;;;;;;;10.80;3.40;;;;;;;6.08;76.27;98343.09;4472207;32;20165;-80
2021/12/19 07:33:24;;;;;;;8.55;3.20;;;;;;;6.24;75.53;98341.03;4471737;32;20500;-80
2021/12/19 07:35:52;;;;;;;7.80;2.72;;;;;;;6.68;73.52;98337.50;4472048;32;20168;-80
2021/12/19 07:38:28;;;;;;;10.38;3.58;;;;;;;6.90;72.34;98325.88;4470818;32;20444;-80
2021/12/19 07:40:57;;;;;;;9.93;3.62;;;;;;;6.82;72.85;98320.12;4469966;32;20152;-80
2021/12/19 07:43:25;;;;;;;9.10;3.62;;;;;;;6.72;72.77;98331.47;4470841;32;20092;-80
2021/12/19 07:45:52;;;;;;;10.07;3.70;;;;;;;7.11;71.33;98315.97;4471682;32;20466;-80
2021/12/19 07:48:19;;;;;;;7.20;3.03;;;;;;;7.35;70.12;98323.09;4471794;32;20415;-80
2021/12/19 07:50:46;;;;;;;9.02;3.25;;;;;;;6.94;71.95;98298.44;4471950;32;20111;-80
2021/12/19 07:53:13;;;;;;;7.35;2.65;;;;;;;6.73;73.28;98297.25;4457474;32;20353;-80
2021/12/19 07:55:40;;;;;;;;;;;;;;;7.30;70.94;98301.81;4472043;32;20148;-80
2021/12/19 07:58:07;;;;;;;10.80;2.92;;;;;;;7.64;69.40;98306.06;4470568;32;19981;-80
2021/12/19 08:00:34;;;;;;;9.95;3.25;;;;;;;8.44;66.58;98302.97;4471419;32;20229;-80
2021/12/19 08:03:01;;;;;;;7.97;3.10;;;;;;;8.53;65.54;98297.53;4471743;32;20428;-80
2021/12/19 08:05:29;;;;;;;8.95;3.40;;;;;;;8.35;65.70;98291.22;4471712;32;20093;-80
2021/12/19 08:08:00;;;;;;;12.27;3.53;;;;;;;7.42;69.66;98283.53;4471245;32;20113;-80
2021/12/19 08:13:05;;;;;;;6.78;2.70;;;;;;;8.31;66.67;98312.75;4471914;32;20080;-80
2021/12/19 08:15:37;;;;;;;7.68;2.78;;;;;;;7.60;69.36;98317.31;4471173;32;20073;-80
2021/12/19 08:18:05;;;;;;;9.57;3.22;;;;;;;7.99;67.94;98334.22;4471555;32;20109;-80
2021/12/19 08:20:33;;;;;;;7.10;2.78;;;;;;;7.94;67.90;98323.22;4471388;32;20130;-80
2021/12/19 08:23:00;;;;;;;8.85;3.22;;;;;;;8.80;64.79;98337.00;4471369;32;20110;-80
2021/12/19 08:25:28;;;;;;;9.23;3.05;;;;;;;8.38;66.22;98334.00;4470319;32;20321;-80
2021/12/19 08:27:55;;;;;;;10.13;3.05;;;;;;;8.08;67.02;98325.38;4471043;32;20103;-80
2021/12/19 08:30:24;;;;;;;9.55;3.50;;;;;;;8.22;66.69;98338.72;4470222;32;20180;-80
2021/12/19 08:32:52;;;;;;;8.20;3.45;;;;;;;8.35;65.23;98340.06;4471596;32;20445;-80
2021/12/19 08:35:19;;;;;;;9.40;3.28;;;;;;;7.83;66.99;98345.78;4471171;32;20107;-80
2021/12/19 08:37:46;;;;;;;8.05;3.28;;;;;;;8.40;65.20;98339.94;4471295;32;20096;-80
2021/12/19 08:40:13;;;;;;;7.87;2.72;;;;;;;8.54;64.35;98349.81;4471274;32;20140;-80
2021/12/19 08:42:40;;;;;;;7.10;2.62;;;;;;;8.66;64.41;98365.72;4471057;32;20094;-80
2021/12/19 08:45:08;;;;;;;7.47;2.92;;;;;;;8.03;65.78;98360.66;4471331;32;20110;-80
2021/12/19 08:47:35;;;;;;;9.13;2.62;;;;;;;8.37;64.41;98346.00;4471271;32;20080;-80
2021/12/19 08:50:04;;;;;;;10.18;3.17;;;;;;;8.33;64.47;98354.66;4470667;32;20538;-80
2021/12/19 08:52:32;;;;;;;7.40;2.58;;;;;;;8.65;63.79;98364.03;4471238;32;20145;-80
2021/12/19 08:54:59;;;;;;;6.85;2.50;;;;;;;8.44;64.46;98356.97;4472841;32;20132;-80
2021/12/19 08:57:27;;;;;;;7.72;2.90;;;;;;;8.35;64.31;98341.81;4472727;32;20161;-80
2021/12/19 08:59:54;;;;;;;8.18;3.03;;;;;;;8.77;62.46;98367.12;4472781;32;20112;-80
2021/12/19 09:02:21;;;;;;;6.87;2.28;;;;;;;9.27;60.87;98362.97;4472946;32;20098;-80
2021/12/19 09:04:48;;;;;;;6.55;2.45;;;;;;;9.46;58.68;98345.16;4472693;32;20106;-80
2021/12/19 09:07:15;;;;;;;8.00;2.90;;;;;;;10.08;57.53;98353.31;4472968;32;20428;-80
2021/12/19 09:09:48;;;;;;;5.78;2.28;;;;;;;10.65;55.72;98364.16;4471791;32;20105;-80
2021/12/19 09:12:15;;;;;;;8.45;3.00;;;;;;;9.45;58.29;98359.78;4472781;32;20178;-80
2021/12/19 09:14:42;;;;;;;7.55;2.53;;;;;;;9.49;58.27;98345.09;4472841;32;20107;-80
2021/12/19 09:17:09;;;;;;;7.70;2.47;;;;;;;9.48;58.49;98348.56;4473443;32;20165;-81
2021/12/19 09:19:37;;;;;;;6.97;2.20;;;;;;;9.34;58.15;98350.72;4473239;32;20105;-80
2021/12/19 09:22:04;;;;;;;7.60;2.42;;;;;;;9.66;57.25;98339.34;4473438;32;20156;-80
2021/12/19 09:24:31;;;;;;;8.18;2.95;;;;;;;9.44;57.20;98341.81;4472552;32;20164;-80
2021/12/19 09:26:59;;;;;;;6.97;2.45;;;;;;;10.65;53.70;98340.94;4472888;32;20169;-80
2021/12/19 09:29:28;;;;;;;8.18;2.42;;;;;;;10.66;52.95;98348.63;4471399;32;20111;-80
2021/12/19 09:31:55;;;;;;;5.37;2.00;;;;;;;11.19;51.68;98337.91;4472436;32;20159;-81
2021/12/19 09:34:23;;;;;;;6.05;2.30;;;;;;;12.11;48.30;98327.13;4472734;32;20089;-81
2021/12/19 09:36:50;;;;;;;5.40;2.00;;;;;;;11.68;49.49;98322.94;4472695;32;20160;-81
2021/12/19 09:39:18;;;;;;;7.25;2.60;;;;;;;12.37;47.76;98336.31;4472130;32;20153;-81
2021/12/19 09:41:46;;;;;;;6.20;2.30;;;;;;;12.96;45.86;98321.47;4472642;32;20159;-81
2021/12/19 09:44:15;;;;;;;6.47;2.25;;;;;;;12.90;45.34;98325.22;4472630;32;20097;-81
2021/12/19 09:46:44;;;;;;;5.22;1.85;;;;;;;11.82;47.10;98331.00;4472309;32;20427;-80
2021/12/19 09:49:14;;;;;;;7.07;2.25;;;;;;;11.56;48.44;98324.31;4472444;32;20180;-80
2021/12/19 09:51:42;;;;;;;6.10;2.03;;;;;;;11.38;49.91;98317.34;4472770;32;20102;-80
2021/12/19 09:54:10;;;;;;;6.22;1.98;;;;;;;12.02;48.49;98321.53;4472344;32;20444;-81
2021/12/19 09:56:38;;;;;;;6.75;2.30;;;;;;;12.10;46.32;98296.16;4472593;32;20457;-80
2021/12/19 09:59:11;;;;;;;7.72;2.75;;;;;;;11.90;48.29;98316.87;4472262;32;20125;-81
2021/12/19 10:01:38;;;;;;;8.35;2.55;;;;;;;11.88;48.00;98307.44;4472588;32;20163;-80
2021/12/19 10:04:07;;;;;;;5.82;2.33;;;;;;;12.39;46.30;98308.59;4472358;32;20132;-80
2021/12/19 10:06:34;;;;;;;6.07;2.20;;;;;;;12.33;46.43;98292.50;4470932;32;20156;-81
2021/12/19 10:09:11;;;;;;;6.68;2.45;;;;;;;12.23;46.58;98288.66;4472279;32;20112;-80
2021/12/19 10:14:26;;;;;;;5.97;2.15;;;;;;;12.50;45.65;98269.28;4472561;32;20077;-79
2021/12/19 10:16:53;;;;;;;7.20;2.37;;;;;;;12.30;45.64;98269.38;4473028;32;20430;-79
2021/12/19 10:19:20;;;;;;;5.85;2.25;;;;;;;12.03;46.22;98261.16;4473231;32;20105;-79
2021/12/19 10:21:47;;;;;;;5.57;2.45;;;;;;;12.68;45.91;98265.00;4471811;32;20109;-79
2021/12/19 10:24:35;;;;;;;6.45;2.35;;;;;;;12.34;44.72;98253.66;4473482;32;20081;-80
2021/12/19 10:27:02;;;;;;;6.25;2.00;;;;;;;12.20;46.27;98255.19;4474775;32;20160;-80
2021/12/19 10:29:43;;;;;;;8.98;2.67;;;;;;;12.46;45.82;98252.25;4472378;32;20148;-80
2021/12/19 10:32:10;;;;;;;7.57;2.58;;;;;;;13.06;44.73;98257.94;4473975;32;20776;-77
2021/12/19 10:34:39;;;;;;;7.28;2.53;;;;;;;13.90;42.46;98238.94;4478047;32;20084;-78
2021/12/19 10:37:31;;;;;;;7.40;2.60;;;;;;;12.82;44.64;98226.34;4478812;32;20057;-84
2021/12/19 10:40:02;;;;;;;6.28;2.40;;;;;;;13.27;43.72;98240.53;4472315;32;20145;-80
2021/12/19 10:42:34;;;;;;;8.48;2.80;;;;;;;13.50;43.38;98234.16;4472101;32;20093;-79
2021/12/19 10:47:47;;;;;;;6.60;2.35;;;;;;;14.94;40.02;98228.03;4472155;32;20352;-76
2021/12/19 10:50:14;;;;;;;6.65;2.37;;;;;;;14.04;40.95;98214.88;4471719;32;20112;-78
2021/12/19 10:52:41;;;;;;;7.45;2.60;;;;;;;13.71;41.85;98214.06;4472133;32;20477;-77
2021/12/19 10:55:11;;;;;;;6.65;2.37;;;;;;;14.34;41.11;98214.94;4471792;32;20085;-78
2021/12/19 10:57:40;;;;;;;8.20;3.10;;;;;;;14.02;41.64;98211.50;4470940;32;20495;-78
2021/12/19 11:00:12;;;;;;;7.60;2.80;;;;;;;13.21;42.61;98202.00;4472060;32;20506;-77
2021/12/19 11:02:42;;;;;;;5.35;2.12;;;;;;;13.22;42.20;98194.13;4457639;32;20129;-77
2021/12/19 11:05:47;;;;;;;7.53;2.60;;;;;;;12.98;42.36;98177.22;4470955;32;20072;-77
2021/12/19 11:08:14;;;;;;;8.55;2.90;;;;;;;12.42;44.42;98184.25;4471901;32;20101;-77
2021/12/19 11:10:41;;;;;;;7.25;2.83;;;;;;;11.68;46.55;98178.19;4471571;32;20097;-77
2021/12/19 11:13:11;;;;;;;7.72;2.80;;;;;;;11.73;46.65;98176.25;4471978;32;20101;-77
2021/12/19 11:15:38;;;;;;;10.95;2.70;;;;;;;11.75;47.21;98194.28;4471273;32;20140;-77
2021/12/19 11:18:05;;;;;;;8.20;2.78;;;;;;;12.61;45.80;98186.78;4471275;32;20156;-77
2021/12/19 11:20:33;;;;;;;7.87;2.75;;;;;;;12.94;44.24;98173.94;4471774;32;20093;-77
2021/12/19 11:23:00;;;;;;;9.15;2.78;;;;;;;12.89;43.86;98173.34;4470695;32;20163;-77
2021/12/19 11:25:27;;;;;;;9.00;3.17;;;;;;;12.79;44.05;98164.34;4470486;32;20428;-77
2021/12/19 11:27:55;;;;;;;9.65;2.72;;;;;;;12.64;44.80;98163.34;4471784;32;20100;-77
2021/12/19 11:30:22;;;;;;;9.23;3.58;;;;;;;13.58;42.27;98164.63;4471479;32;20490;-77
2021/12/19 11:33:12;;;;;;;10.27;3.03;;;;;;;13.50;42.29;98161.59;4471799;32;20103;-77
2021/12/19 11:35:45;;;;;;;9.07;3.12;;;;;;;12.34;44.75;98152.75;4471933;32;20084;-77
2021/12/19 11:38:13;;;;;;;9.13;3.30;;;;;;;11.67;45.73;98130.00;4470437;32;20144;-77
2021/12/19 11:40:43;;;;;;;9.60;3.53;;;;;;;11.53;46.94;98129.81;4471607;32;20109;-78
2021/12/19 11:43:11;;;;;;;8.30;3.00;;;;;;;11.80;46.62;98127.72;4471741;32;20089;-78
2021/12/19 11:45:53;;;;;;;8.43;3.03;;;;;;;11.98;45.82;98126.03;4470280;32;20077;-77
2021/12/19 11:48:31;;;;;;;11.30;3.47;;;;;;;11.61;47.41;98121.72;4470560;32;20138;-77
2021/12/19 11:51:06;;;;;;;9.02;3.05;;;;;;;12.42;45.69;98119.56;4471740;32;20117;-77
2021/12/19 11:53:39;;;;;;;7.10;2.67;;;;;;;12.30;46.54;98114.97;4471539;32;20474;-78
2021/12/19 11:56:09;;;;;;;8.77;2.95;;;;;;;13.32;43.18;98103.81;4471707;32;20171;-78
2021/12/19 11:58:45;;;;;;;11.30;3.85;;;;;;;13.12;43.28;98110.00;4470251;32;20618;-78
2021/12/19 12:01:28;;;;;;;7.15;2.58;;;;;;;12.41;44.55;98096.34;4471533;32;20112;-78
2021/12/19 12:03:57;;;;;;;8.43;2.90;;;;;;;11.80;46.86;98094.13;4471337;32;20084;-77
2021/12/19 12:06:26;;;;;;;9.20;2.78;;;;;;;12.03;45.95;98093.88;4471223;32;20081;-78
2021/12/19 12:09:20;;;;;;;8.25;2.72;;;;;;;11.63;46.37;98096.63;4470207;32;20144;-78
2021/12/19 12:12:10;;;;;;;7.20;2.55;;;;;;;11.44;46.64;98102.63;4471598;32;20109;-78
2021/12/19 12:14:50;;;;;;;7.25;2.65;;;;;;;10.98;46.51;98068.53;4471200;32;20160;-77
2021/12/19 12:17:22;;;;;;;7.30;2.72;;;;;;;10.30;48.45;98069.72;4471533;32;20076;-77
2021/12/19 12:19:58;;;;;;;5.62;2.10;;;;;;;10.77;49.39;98079.78;4469871;32;20145;-78
2021/12/19 12:22:38;;;;;;;7.03;2.62;;;;;;;9.78;50.62;98061.50;4471443;32;20092;-78
2021/12/19 12:25:27;;;;;;;9.13;2.78;;;;;;;9.86;51.38;98049.13;4471361;32;20085;-78
2021/12/19 12:28:04;;;;;;;8.18;3.10;;;;;;;9.19;52.26;98056.87;4470750;32;20107;-78
2021/12/19 12:30:45;;;;;;;8.50;3.17;;;;;;;9.53;51.21;98065.91;4471426;32;20128;-78
2021/12/19 12:33:15;;;;;;;12.00;3.28;;;;;;;9.94;51.70;98051.41;4471369;32;20635;-78
2021/12/19 12:35:46;;;;;;;9.38;2.90;;;;;;;9.94;50.19;98056.56;4471213;32;20093;-78
2021/12/19 12:38:14;;;;;;;9.18;3.28;;;;;;;9.52;52.72;98061.66;4471308;32;20089;-78
2021/12/19 12:43:23;;;;;;;10.40;3.25;;;;;;;9.62;52.50;98065.53;4471392;32;20411;-78
2021/12/19 12:46:09;;;;;;;7.70;2.72;;;;;;;9.67;54.14;98058.47;4470252;32;20103;-78
2021/12/19 12:48:43;;;;;;;5.47;2.08;;;;;;;8.72;54.54;98039.72;4470894;32;20081;-78
2021/12/19 12:51:11;;;;;;;11.55;3.20;;;;;;;8.31;56.77;98044.53;4471199;32;20139;-78
2021/12/19 12:53:46;;;;;;;7.68;2.62;;;;;;;8.02;56.86;98023.22;4471267;32;20454;-77
2021/12/19 12:56:19;;;;;;;6.10;2.37;;;;;;;8.03;56.93;98047.19;4469782;32;20084;-78
2021/12/19 12:58:55;;;;;;;6.62;2.33;;;;;;;8.43;56.44;98023.59;4470966;32;20110;-78
2021/12/19 13:01:29;;;;;;;6.00;2.15;;;;;;;8.59;55.79;98011.84;4471701;32;20093;-80
2021/12/19 13:03:59;;;;;;;5.65;2.08;;;;;;;8.49;56.44;98027.66;4472175;32;20155;-79